Time;durP1;ratioP1;P1;durP2;ratioP2;P2;SDS_P1;SDS_P2;PMS_P1;PMS_P2;Temp;Humidity;BMP_temperature;BMP_pressure;BME280_temperature;BME280_humidity;BME280_pressure;Samples;Min_cycle;Max_cycle;Signal;HPM_P1;HPM_P2
2021/08/27 00:00:04;;;;;;;8.10;3.70;;;;;;;;;;5013318;28;20458;-79
2021/08/27 00:02:30;;;;;;;5.97;3.90;;;;;;;;;;5013813;28;20456;-78
2021/08/27 00:04:56;;;;;;;6.03;3.83;;;;;;;;;;5016773;28;20425;-78
2021/08/27 00:07:22;;;;;;;8.07;3.87;;;;;;;;;;5017187;28;20444;-80
2021/08/27 00:09:48;;;;;;;11.60;4.20;;;;;;;;;;5017070;28;20491;-80
2021/08/27 00:12:14;;;;;;;7.13;3.23;;;;;;;;;;4999268;28;20437;-80
2021/08/27 00:14:41;;;;;;;12.40;4.07;;;;;;;;;;5016706;28;20453;-78
2021/08/27 00:17:07;;;;;;;12.35;3.92;;;;;;;;;;5017360;28;20766;-78
2021/08/27 00:19:33;;;;;;;6.33;3.60;;;;;;;;;;5016945;28;20186;-79
2021/08/27 00:21:59;;;;;;;9.93;3.93;;;;;;;;;;4999437;28;20895;-77
2021/08/27 00:24:25;;;;;;;9.53;3.03;;;;;;;;;;5016516;28;20410;-80
2021/08/27 00:26:51;;;;;;;6.93;3.33;;;;;;;;;;5016823;28;20433;-77
2021/08/27 00:29:17;;;;;;;7.37;3.63;;;;;;;;;;5016942;28;20408;-79
2021/08/27 00:31:43;;;;;;;6.90;3.53;;;;;;;;;;5016858;28;20496;-80
2021/08/27 00:34:09;;;;;;;10.40;3.20;;;;;;;;;;5016561;28;20409;-80
2021/08/27 00:36:35;;;;;;;16.70;3.47;;;;;;;;;;4999036;28;20449;-79
2021/08/27 00:39:01;;;;;;;4.90;2.83;;;;;;;;;;5016907;28;20418;-79
2021/08/27 00:41:27;;;;;;;13.10;3.13;;;;;;;;;;5018158;28;20564;-79
2021/08/27 00:43:53;;;;;;;7.30;2.87;;;;;;;;;;5016700;28;20406;-77
2021/08/27 00:46:19;;;;;;;8.83;3.23;;;;;;;;;;5016444;28;20956;-78
2021/08/27 00:48:45;;;;;;;6.27;2.60;;;;;;;;;;5016457;28;20406;-80
2021/08/27 00:51:11;;;;;;;13.37;2.47;;;;;;;;;;5016673;28;20804;-80
2021/08/27 00:53:37;;;;;;;11.60;2.70;;;;;;;;;;5016295;28;20406;-80
2021/08/27 00:56:03;;;;;;;8.63;3.00;;;;;;;;;;5016490;28;20465;-79
2021/08/27 00:58:29;;;;;;;9.67;2.03;;;;;;;;;;5016237;28;20453;-78
2021/08/27 01:00:55;;;;;;;16.40;3.13;;;;;;;;;;5016154;28;20518;-80
2021/08/27 01:03:21;;;;;;;13.60;2.60;;;;;;;;;;5015870;28;20775;-79
2021/08/27 01:05:50;;;;;;;4.40;2.40;;;;;;;;;;5016171;28;20421;-79
2021/08/27 01:08:28;;;;;;;3.50;2.83;;;;;;;;;;5016201;28;20800;-79
2021/08/27 01:11:01;;;;;;;5.37;3.00;;;;;;;;;;4998313;28;20445;-79
2021/08/27 01:13:29;;;;;;;6.90;2.57;;;;;;;;;;5016043;28;21025;-80
2021/08/27 01:15:55;;;;;;;9.63;2.73;;;;;;;;;;5015396;28;20937;-78
2021/08/27 01:18:40;;;;;;;7.23;2.80;;;;;;;;;;4998394;28;20501;-80
2021/08/27 01:21:24;;;;;;;7.97;2.13;;;;;;;;;;5015857;28;20543;-78
2021/08/27 01:23:53;;;;;;;17.73;3.03;;;;;;;;;;5015589;28;20406;-79
2021/08/27 01:26:21;;;;;;;7.20;2.73;;;;;;;;;;4998266;28;20525;-80
2021/08/27 01:28:49;;;;;;;9.23;2.90;;;;;;;;;;5015573;28;21015;-80
2021/08/27 01:31:15;;;;;;;8.50;3.00;;;;;;;;;;5015732;28;20417;-79
2021/08/27 01:33:43;;;;;;;7.43;2.60;;;;;;;;;;5015428;28;20420;-78
2021/08/27 01:36:10;;;;;;;8.50;2.50;;;;;;;;;;5015680;28;20430;-79
2021/08/27 01:38:38;;;;;;;16.00;2.97;;;;;;;;;;5015424;28;20459;-78
2021/08/27 01:41:09;;;;;;;9.40;2.87;;;;;;;;;;5015333;28;20496;-81
2021/08/27 01:43:36;;;;;;;12.40;2.33;;;;;;;;;;5015083;28;20406;-79
2021/08/27 01:46:02;;;;;;;5.27;2.33;;;;;;;;;;4997970;28;20461;-79
2021/08/27 01:48:30;;;;;;;9.03;3.43;;;;;;;;;;5015206;28;20837;-79
2021/08/27 01:50:56;;;;;;;12.70;2.70;;;;;;;;;;5015133;28;20417;-80
2021/08/27 01:53:24;;;;;;;8.00;2.87;;;;;;;;;;4997083;28;20990;-77
2021/08/27 01:55:50;;;;;;;6.13;3.20;;;;;;;;;;5015128;28;20474;-81
2021/08/27 01:58:16;;;;;;;12.07;2.27;;;;;;;;;;5015425;28;20472;-81
2021/08/27 02:00:43;;;;;;;8.07;2.40;;;;;;;;;;5014994;28;20454;-80
2021/08/27 02:03:09;;;;;;;8.10;3.03;;;;;;;;;;5014647;28;20460;-80
2021/08/27 02:05:37;;;;;;;9.43;3.17;;;;;;;;;;5015097;28;20440;-80
2021/08/27 02:08:04;;;;;;;10.43;2.97;;;;;;;;;;5014982;28;20384;-79
2021/08/27 02:10:30;;;;;;;7.93;3.13;;;;;;;;;;5014863;28;20425;-81
2021/08/27 02:12:56;;;;;;;14.13;2.57;;;;;;;;;;5014623;28;20410;-80
2021/08/27 02:15:23;;;;;;;8.53;2.50;;;;;;;;;;5014823;28;20524;-81
2021/08/27 02:17:49;;;;;;;6.67;2.63;;;;;;;;;;5014831;28;20414;-79
2021/08/27 02:20:15;;;;;;;6.93;3.63;;;;;;;;;;5014720;28;20465;-79
2021/08/27 02:22:42;;;;;;;6.63;2.97;;;;;;;;;;5014456;28;20414;-80
2021/08/27 02:25:13;;;;;;;6.50;2.90;;;;;;;;;;5014357;28;20433;-81
2021/08/27 02:27:41;;;;;;;5.60;2.70;;;;;;;;;;5013594;28;20512;-78
2021/08/27 02:30:08;;;;;;;11.50;4.00;;;;;;;;;;5014658;28;20410;-78
2021/08/27 02:32:35;;;;;;;12.10;3.20;;;;;;;;;;5014547;28;20399;-78
2021/08/27 02:35:03;;;;;;;9.88;2.63;;;;;;;;;;5014080;28;20440;-81
2021/08/27 02:37:33;;;;;;;11.20;3.03;;;;;;;;;;5014214;28;20167;-80
2021/08/27 02:40:01;;;;;;;7.80;3.25;;;;;;;;;;5014313;28;20462;-80
2021/08/27 02:42:30;;;;;;;4.83;3.07;;;;;;;;;;5014393;28;20171;-79
2021/08/27 02:44:56;;;;;;;6.90;2.70;;;;;;;;;;5013989;28;20441;-81
2021/08/27 02:47:22;;;;;;;7.57;2.50;;;;;;;;;;5014162;28;20803;-81
2021/08/27 02:49:49;;;;;;;5.10;2.60;;;;;;;;;;5014162;28;20832;-82
2021/08/27 02:52:26;;;;;;;8.33;2.70;;;;;;;;;;5014075;28;20922;-79
2021/08/27 02:55:07;;;;;;;10.90;2.70;;;;;;;;;;4996242;28;20491;-81
2021/08/27 02:57:43;;;;;;;10.30;2.50;;;;;;;;;;4996541;28;20409;-79
2021/08/27 03:00:09;;;;;;;7.23;2.57;;;;;;;;;;5014078;28;20464;-80
2021/08/27 03:02:36;;;;;;;9.80;3.00;;;;;;;;;;4996655;28;20416;-79
2021/08/27 03:05:05;;;;;;;7.47;2.90;;;;;;;;;;5013690;28;20426;-80
2021/08/27 03:07:31;;;;;;;6.23;2.70;;;;;;;;;;5013957;28;20418;-78
2021/08/27 03:10:03;;;;;;;2.87;2.53;;;;;;;;;;5013834;28;20440;-78
2021/08/27 03:12:41;;;;;;;10.73;2.47;;;;;;;;;;5014177;28;20496;-80
2021/08/27 03:15:09;;;;;;;11.30;2.97;;;;;;;;;;5013492;28;20418;-81
2021/08/27 03:17:37;;;;;;;6.17;2.60;;;;;;;;;;5013901;28;20409;-79
2021/08/27 03:20:03;;;;;;;11.10;3.07;;;;;;;;;;5013777;28;20898;-80
2021/08/27 03:22:31;;;;;;;6.97;3.63;;;;;;;;;;5013849;28;20442;-80
2021/08/27 03:25:01;;;;;;;12.03;2.90;;;;;;;;;;5013184;28;20977;-81
2021/08/27 03:27:30;;;;;;;8.20;2.50;;;;;;;;;;5013724;28;20406;-79
2021/08/27 03:29:59;;;;;;;6.30;2.40;;;;;;;;;;5013366;28;20421;-80
2021/08/27 03:32:26;;;;;;;12.07;3.00;;;;;;;;;;5013574;28;20414;-78
2021/08/27 03:34:52;;;;;;;7.00;2.63;;;;;;;;;;5013194;28;20452;-80
2021/08/27 03:37:19;;;;;;;9.00;2.87;;;;;;;;;;5013132;28;20957;-81
2021/08/27 03:39:46;;;;;;;8.33;2.23;;;;;;;;;;5013272;28;20422;-82
2021/08/27 03:42:14;;;;;;;6.70;2.50;;;;;;;;;;5013370;28;20497;-80
2021/08/27 03:44:40;;;;;;;5.50;2.20;;;;;;;;;;5013122;28;20497;-80
2021/08/27 03:47:07;;;;;;;11.70;2.60;;;;;;;;;;5013259;28;20539;-79
2021/08/27 03:49:33;;;;;;;4.70;2.43;;;;;;;;;;5013406;28;20881;-79
2021/08/27 03:52:00;;;;;;;13.17;3.87;;;;;;;;;;5013219;28;20410;-78
2021/08/27 03:54:26;;;;;;;15.07;3.00;;;;;;;;;;5012934;28;20420;-78
2021/08/27 03:56:53;;;;;;;13.87;3.17;;;;;;;;;;5013168;28;20948;-78
2021/08/27 03:59:19;;;;;;;17.50;3.37;;;;;;;;;;4995496;28;20794;-78
2021/08/27 04:01:46;;;;;;;11.07;3.93;;;;;;;;;;5013490;28;20539;-80
2021/08/27 04:04:21;;;;;;;13.93;3.67;;;;;;;;;;5012860;28;20431;-80
2021/08/27 04:06:57;;;;;;;14.37;3.57;;;;;;;;;;5013169;28;20430;-80
2021/08/27 04:09:24;;;;;;;12.83;3.43;;;;;;;;;;5013452;28;20410;-81
2021/08/27 04:11:50;;;;;;;19.17;3.57;;;;;;;;;;5013016;28;20426;-79
2021/08/27 04:14:16;;;;;;;11.07;3.20;;;;;;;;;;5012727;28;20421;-79
2021/08/27 04:16:43;;;;;;;6.93;3.47;;;;;;;;;;5012910;28;20509;-81
2021/08/27 04:19:09;;;;;;;9.40;3.70;;;;;;;;;;5013058;28;20461;-80
2021/08/27 04:21:35;;;;;;;7.60;4.20;;;;;;;;;;5012965;28;20457;-81
2021/08/27 04:24:01;;;;;;;10.20;3.47;;;;;;;;;;5012692;28;20782;-80
2021/08/27 04:26:27;;;;;;;8.30;4.47;;;;;;;;;;4979452;28;20430;-79
2021/08/27 04:28:53;;;;;;;13.47;4.03;;;;;;;;;;5013141;28;20418;-80
2021/08/27 04:31:19;;;;;;;8.27;3.63;;;;;;;;;;5013204;28;20751;-81
2021/08/27 04:33:45;;;;;;;13.43;4.23;;;;;;;;;;5012694;28;20413;-80
2021/08/27 04:36:11;;;;;;;7.83;3.60;;;;;;;;;;5012945;28;20436;-79
2021/08/27 04:38:37;;;;;;;12.77;4.10;;;;;;;;;;5012909;28;20937;-81
2021/08/27 04:41:03;;;;;;;9.90;3.43;;;;;;;;;;5012771;28;20466;-80
2021/08/27 04:43:29;;;;;;;10.50;3.50;;;;;;;;;;5012618;28;20511;-79
2021/08/27 04:45:55;;;;;;;5.87;2.93;;;;;;;;;;5012949;28;20432;-79
2021/08/27 04:48:21;;;;;;;7.10;3.00;;;;;;;;;;5012632;28;20865;-78
2021/08/27 04:50:47;;;;;;;9.23;3.70;;;;;;;;;;5015070;28;20414;-81
2021/08/27 04:53:13;;;;;;;14.03;4.20;;;;;;;;;;5016021;28;20414;-80
2021/08/27 04:55:39;;;;;;;14.53;4.83;;;;;;;;;;5016489;28;20879;-81
2021/08/27 04:58:05;;;;;;;8.80;4.00;;;;;;;;;;5016221;28;20414;-80
2021/08/27 05:00:31;;;;;;;7.07;3.90;;;;;;;;;;5015727;28;20496;-81
2021/08/27 05:02:57;;;;;;;12.67;3.97;;;;;;;;;;5015803;28;20417;-79
2021/08/27 05:05:23;;;;;;;14.67;3.73;;;;;;;;;;4998387;28;20521;-81
2021/08/27 05:07:49;;;;;;;6.93;3.50;;;;;;;;;;5016252;28;20474;-82
2021/08/27 05:10:15;;;;;;;8.20;3.20;;;;;;;;;;5015884;28;20438;-80
2021/08/27 05:12:41;;;;;;;17.50;4.27;;;;;;;;;;5015588;28;20468;-79
2021/08/27 05:15:08;;;;;;;5.83;4.03;;;;;;;;;;5015792;28;20779;-82
2021/08/27 05:17:35;;;;;;;6.63;3.30;;;;;;;;;;4998251;28;20430;-80
2021/08/27 05:20:01;;;;;;;11.10;4.07;;;;;;;;;;5015990;28;20458;-81
2021/08/27 05:22:27;;;;;;;14.10;5.60;;;;;;;;;;5016086;28;20495;-81
2021/08/27 05:24:53;;;;;;;11.93;3.93;;;;;;;;;;4998229;28;20482;-81
2021/08/27 05:27:19;;;;;;;10.40;4.30;;;;;;;;;;5015863;28;20414;-79
2021/08/27 05:29:45;;;;;;;18.63;3.83;;;;;;;;;;5015697;28;20771;-81
2021/08/27 05:32:11;;;;;;;6.03;3.30;;;;;;;;;;5015690;28;20416;-80
2021/08/27 05:34:37;;;;;;;16.60;4.40;;;;;;;;;;5015044;28;20420;-79
2021/08/27 05:37:03;;;;;;;6.77;4.03;;;;;;;;;;5015486;28;20492;-80
2021/08/27 05:39:29;;;;;;;6.67;3.90;;;;;;;;;;4997965;28;20425;-81
2021/08/27 05:41:59;;;;;;;12.63;3.73;;;;;;;;;;4998099;28;20464;-79
2021/08/27 05:44:25;;;;;;;17.67;4.47;;;;;;;;;;5015254;28;20753;-80
2021/08/27 05:46:51;;;;;;;8.30;3.37;;;;;;;;;;5015204;28;20430;-81
2021/08/27 05:49:17;;;;;;;10.20;3.90;;;;;;;;;;5015308;28;20412;-78
2021/08/27 05:51:43;;;;;;;7.10;3.93;;;;;;;;;;5015517;28;20485;-81
2021/08/27 05:54:09;;;;;;;7.40;4.57;;;;;;;;;;5014959;28;20968;-81
2021/08/27 05:56:35;;;;;;;7.57;4.10;;;;;;;;;;4997668;28;20955;-80
2021/08/27 05:59:02;;;;;;;12.73;6.30;;;;;;;;;;5014946;28;20823;-81
2021/08/27 06:01:27;;;;;;;11.70;4.53;;;;;;;;;;5014767;28;20835;-80
2021/08/27 06:03:54;;;;;;;12.10;4.67;;;;;;;;;;5014762;28;20421;-82
2021/08/27 06:06:20;;;;;;;14.03;6.30;;;;;;;;;;5014229;28;20444;-81
2021/08/27 06:08:46;;;;;;;10.70;4.50;;;;;;;;;;5014941;28;20410;-80
2021/08/27 06:11:12;;;;;;;13.47;5.60;;;;;;;;;;4997150;28;20452;-79
2021/08/27 06:13:38;;;;;;;12.87;5.40;;;;;;;;;;5014798;28;20866;-79
2021/08/27 06:16:04;;;;;;;12.43;5.47;;;;;;;;;;5014810;28;20444;-80
2021/08/27 06:18:30;;;;;;;6.97;4.50;;;;;;;;;;5014794;28;20895;-79
2021/08/27 06:20:56;;;;;;;15.47;5.00;;;;;;;;;;5014521;28;20472;-78
2021/08/27 06:23:22;;;;;;;13.67;4.50;;;;;;;;;;5013690;28;20406;-81
2021/08/27 06:25:48;;;;;;;7.73;3.50;;;;;;;;;;5014501;28;20429;-80
2021/08/27 06:28:15;;;;;;;15.50;4.17;;;;;;;;;;4996875;28;20426;-80
2021/08/27 06:30:41;;;;;;;20.90;4.90;;;;;;;;;;5014704;28;20438;-79
2021/08/27 06:33:07;;;;;;;8.73;4.17;;;;;;;;;;5014232;28;20479;-80
2021/08/27 06:35:33;;;;;;;8.80;3.60;;;;;;;;;;5014304;28;20449;-80
2021/08/27 06:40:44;;;;;;;9.07;3.90;;;;;;;;;;5014463;28;20523;-80
2021/08/27 06:43:10;;;;;;;10.77;5.10;;;;;;;;;;5013896;28;20417;-80
2021/08/27 06:45:36;;;;;;;15.67;5.17;;;;;;;;;;5014129;28;20404;-78
2021/08/27 06:48:02;;;;;;;12.50;4.10;;;;;;;;;;5014165;28;20421;-80
2021/08/27 06:50:28;;;;;;;8.20;3.43;;;;;;;;;;5014185;28;20418;-80
2021/08/27 06:52:55;;;;;;;13.67;4.13;;;;;;;;;;5013752;28;20471;-78
2021/08/27 06:55:21;;;;;;;6.60;3.77;;;;;;;;;;5013913;28;20888;-79
2021/08/27 06:57:47;;;;;;;7.03;3.97;;;;;;;;;;5013975;28;20875;-79
2021/08/27 07:00:13;;;;;;;9.23;5.13;;;;;;;;;;4996159;28;20552;-80
2021/08/27 07:02:39;;;;;;;13.90;4.83;;;;;;;;;;5014182;28;20421;-79
2021/08/27 07:05:06;;;;;;;10.00;4.00;;;;;;;;;;4996026;28;20533;-79
2021/08/27 07:07:32;;;;;;;11.73;5.10;;;;;;;;;;5014066;28;20442;-79
2021/08/27 07:09:58;;;;;;;5.93;3.80;;;;;;;;;;5014137;28;20891;-78
2021/08/27 07:12:24;;;;;;;13.57;5.20;;;;;;;;;;5013674;28;20453;-79
2021/08/27 07:14:50;;;;;;;11.37;4.20;;;;;;;;;;5013716;28;20422;-82
2021/08/27 07:17:20;;;;;;;13.03;4.83;;;;;;;;;;4996453;28;20783;-81
2021/08/27 07:19:48;;;;;;;13.90;4.10;;;;;;;;;;5013735;28;20405;-79
2021/08/27 07:22:15;;;;;;;11.00;4.17;;;;;;;;;;4995959;28;20414;-82
2021/08/27 07:24:41;;;;;;;6.70;3.90;;;;;;;;;;5013364;28;20448;-81
2021/08/27 07:27:09;;;;;;;13.97;4.00;;;;;;;;;;5013646;28;20778;-82
2021/08/27 07:29:35;;;;;;;11.00;4.50;;;;;;;;;;4996557;28;20405;-82
2021/08/27 07:32:01;;;;;;;14.20;4.23;;;;;;;;;;5013349;28;20410;-81
2021/08/27 07:34:27;;;;;;;9.90;3.80;;;;;;;;;;5013186;28;20453;-81
2021/08/27 07:36:53;;;;;;;10.33;3.97;;;;;;;;;;5013440;28;20958;-82
2021/08/27 07:39:19;;;;;;;11.00;4.83;;;;;;;;;;5013429;28;20501;-80
2021/08/27 07:41:45;;;;;;;7.73;3.67;;;;;;;;;;4995878;28;20457;-80
2021/08/27 07:44:11;;;;;;;15.00;4.00;;;;;;;;;;5013137;28;20414;-83
2021/08/27 07:46:38;;;;;;;7.80;3.20;;;;;;;;;;5013314;28;20800;-83
2021/08/27 07:49:04;;;;;;;8.93;3.40;;;;;;;;;;5013592;28;20878;-82
2021/08/27 07:51:31;;;;;;;9.57;4.37;;;;;;;;;;5013319;28;20907;-80
2021/08/27 07:53:57;;;;;;;13.73;3.43;;;;;;;;;;5012968;28;20472;-79
2021/08/27 07:56:23;;;;;;;7.73;3.30;;;;;;;;;;5013541;28;20433;-81
2021/08/27 07:58:48;;;;;;;13.90;4.33;;;;;;;;;;5013216;28;20413;-81
2021/08/27 08:01:15;;;;;;;5.20;2.70;;;;;;;;;;5013186;28;20470;-80
2021/08/27 08:03:41;;;;;;;12.27;3.27;;;;;;;;;;5013001;28;20777;-80
2021/08/27 08:06:07;;;;;;;9.10;3.30;;;;;;;;;;5013028;28;20422;-80
2021/08/27 08:08:33;;;;;;;8.40;3.07;;;;;;;;;;4995496;28;20421;-82
2021/08/27 08:10:59;;;;;;;7.00;3.60;;;;;;;;;;5013313;28;20483;-81
2021/08/27 08:13:25;;;;;;;6.67;3.37;;;;;;;;;;5012846;28;20927;-80
2021/08/27 08:15:51;;;;;;;10.30;3.90;;;;;;;;;;5013332;28;20452;-79
2021/08/27 08:18:17;;;;;;;16.70;4.77;;;;;;;;;;4995421;28;20396;-79
2021/08/27 08:20:43;;;;;;;10.03;4.50;;;;;;;;;;5013215;28;20947;-78
2021/08/27 08:23:09;;;;;;;9.37;4.13;;;;;;;;;;5012856;28;20499;-78
2021/08/27 08:25:36;;;;;;;10.10;4.00;;;;;;;;;;5015367;28;20957;-79
2021/08/27 08:28:05;;;;;;;7.60;3.83;;;;;;;;;;5016932;28;20416;-78
2021/08/27 08:30:31;;;;;;;8.47;4.10;;;;;;;;;;5016742;28;20385;-80
2021/08/27 08:32:57;;;;;;;13.27;4.47;;;;;;;;;;5016526;28;20410;-79
2021/08/27 08:35:23;;;;;;;9.43;4.07;;;;;;;;;;5016514;28;20437;-81
2021/08/27 08:37:49;;;;;;;8.83;4.50;;;;;;;;;;5016783;28;20413;-79
2021/08/27 08:40:15;;;;;;;15.40;5.10;;;;;;;;;;5016540;28;20439;-80
2021/08/27 08:42:41;;;;;;;7.73;4.37;;;;;;;;;;4999146;28;20414;-79
2021/08/27 08:45:07;;;;;;;10.30;4.50;;;;;;;;;;5016402;28;20436;-79
2021/08/27 08:47:36;;;;;;;14.60;5.57;;;;;;;;;;5016498;28;20448;-79
2021/08/27 08:50:03;;;;;;;9.20;3.57;;;;;;;;;;5016476;28;20380;-79
2021/08/27 08:52:29;;;;;;;6.67;4.47;;;;;;;;;;4998854;28;20790;-79
2021/08/27 08:54:55;;;;;;;6.23;3.73;;;;;;;;;;4998512;28;20771;-80
2021/08/27 08:57:21;;;;;;;7.70;4.23;;;;;;;;;;5016277;28;20779;-81
2021/08/27 08:59:47;;;;;;;6.27;3.53;;;;;;;;;;5016024;28;20408;-80
2021/08/27 09:02:14;;;;;;;11.00;4.30;;;;;;;;;;5016065;28;20405;-79
2021/08/27 09:04:40;;;;;;;6.30;3.27;;;;;;;;;;5015362;28;20400;-81
2021/08/27 09:07:06;;;;;;;4.77;2.77;;;;;;;;;;4998215;28;20583;-81
2021/08/27 09:09:33;;;;;;;8.60;2.53;;;;;;;;;;4998385;28;20421;-83
2021/08/27 09:12:00;;;;;;;5.90;2.33;;;;;;;;;;5016076;28;20497;-82
2021/08/27 09:14:30;;;;;;;6.17;2.10;;;;;;;;;;5015495;28;20410;-81
2021/08/27 09:17:06;;;;;;;7.60;2.43;;;;;;;;;;5015858;28;20369;-81
2021/08/27 09:19:51;;;;;;;5.30;2.50;;;;;;;;;;5015757;28;20480;-83
2021/08/27 09:22:17;;;;;;;4.90;2.30;;;;;;;;;;5015672;28;20480;-80
2021/08/27 09:24:43;;;;;;;4.77;2.03;;;;;;;;;;5015101;28;20381;-81
2021/08/27 09:27:09;;;;;;;4.40;1.70;;;;;;;;;;5015851;28;20406;-80
2021/08/27 09:29:38;;;;;;;5.37;2.50;;;;;;;;;;5015537;28;20402;-82
2021/08/27 09:32:17;;;;;;;4.63;1.87;;;;;;;;;;5015642;28;20485;-83
2021/08/27 09:34:44;;;;;;;6.80;1.70;;;;;;;;;;4997555;28;20966;-81
2021/08/27 09:37:10;;;;;;;2.93;1.83;;;;;;;;;;5014993;28;20381;-83
2021/08/27 09:39:36;;;;;;;1.73;1.30;;;;;;;;;;5015516;28;20958;-80
2021/08/27 09:42:02;;;;;;;3.53;2.03;;;;;;;;;;5015316;28;20473;-81
2021/08/27 09:44:29;;;;;;;4.03;1.90;;;;;;;;;;5014893;28;20419;-79
2021/08/27 09:46:55;;;;;;;7.20;1.93;;;;;;;;;;5014947;28;20407;-80
2021/08/27 09:49:25;;;;;;;7.10;1.97;;;;;;;;;;5015130;28;20410;-81
2021/08/27 09:51:51;;;;;;;10.03;2.20;;;;;;;;;;5015276;28;20410;-79
2021/08/27 09:54:34;;;;;;;8.57;2.57;;;;;;;;;;5014850;28;20471;-81
2021/08/27 09:57:01;;;;;;;5.20;1.47;;;;;;;;;;4997366;28;20439;-80
2021/08/27 09:59:36;;;;;;;5.40;1.60;;;;;;;;;;4997409;28;20447;-81
2021/08/27 10:02:06;;;;;;;5.80;1.73;;;;;;;;;;5014972;28;20880;-80
2021/08/27 10:04:32;;;;;;;3.47;1.33;;;;;;;;;;5014609;28;20482;-81
2021/08/27 10:06:58;;;;;;;4.23;1.40;;;;;;;;;;5014796;28;20410;-81
2021/08/27 10:09:42;;;;;;;7.00;1.50;;;;;;;;;;5014713;28;20445;-83
2021/08/27 10:12:09;;;;;;;6.17;1.57;;;;;;;;;;5014844;28;20380;-79
2021/08/27 10:14:35;;;;;;;2.70;1.07;;;;;;;;;;5014443;28;20757;-80
2021/08/27 10:17:03;;;;;;;4.97;1.53;;;;;;;;;;5014635;28;20417;-81
2021/08/27 10:19:29;;;;;;;3.77;1.40;;;;;;;;;;5014679;28;20434;-80
2021/08/27 10:21:55;;;;;;;8.00;2.03;;;;;;;;;;4997491;28;20465;-82
2021/08/27 10:24:21;;;;;;;3.20;1.40;;;;;;;;;;5014400;28;20501;-81
2021/08/27 10:26:47;;;;;;;3.57;2.70;;;;;;;;;;5014630;28;20400;-82
2021/08/27 10:29:13;;;;;;;3.47;1.47;;;;;;;;;;5014449;28;20421;-82
2021/08/27 10:31:42;;;;;;;9.23;2.00;;;;;;;;;;5014571;28;20631;-79
2021/08/27 10:34:08;;;;;;;4.07;1.83;;;;;;;;;;4996947;28;20384;-78
2021/08/27 10:36:34;;;;;;;6.37;1.87;;;;;;;;;;5014434;28;20434;-80
2021/08/27 10:39:01;;;;;;;5.73;1.90;;;;;;;;;;5014349;28;20504;-79
2021/08/27 10:41:34;;;;;;;2.90;1.53;;;;;;;;;;4996766;28;20520;-78
2021/08/27 10:44:00;;;;;;;5.00;1.90;;;;;;;;;;5014252;28;20750;-79
2021/08/27 10:46:48;;;;;;;10.10;2.20;;;;;;;;;;5014300;28;20460;-79
2021/08/27 10:49:20;;;;;;;4.73;1.63;;;;;;;;;;5014028;28;20368;-79
2021/08/27 10:51:49;;;;;;;5.27;1.57;;;;;;;;;;5014568;28;20782;-79
2021/08/27 10:54:17;;;;;;;3.60;1.93;;;;;;;;;;5013792;28;20391;-80
2021/08/27 10:56:52;;;;;;;3.30;1.50;;;;;;;;;;5014002;28;20430;-80
2021/08/27 10:59:20;;;;;;;6.33;2.07;;;;;;;;;;4995970;28;20429;-80
2021/08/27 11:01:47;;;;;;;3.90;1.57;;;;;;;;;;5013562;28;20859;-80
2021/08/27 11:04:23;;;;;;;1.93;1.17;;;;;;;;;;5013732;28;20525;-79
2021/08/27 11:06:49;;;;;;;1.33;0.87;;;;;;;;;;4996395;28;20454;-80
2021/08/27 11:09:20;;;;;;;4.60;1.90;;;;;;;;;;5013570;28;20413;-81
2021/08/27 11:11:47;;;;;;;5.70;1.70;;;;;;;;;;4995775;28;20444;-80
2021/08/27 11:14:20;;;;;;;8.00;1.40;;;;;;;;;;5013373;28;20480;-79
2021/08/27 11:17:00;;;;;;;3.83;1.60;;;;;;;;;;5013607;28;20434;-80
2021/08/27 11:19:29;;;;;;;4.80;1.30;;;;;;;;;;4995993;28;20400;-78
2021/08/27 11:21:56;;;;;;;2.17;1.20;;;;;;;;;;5013497;28;20523;-79
2021/08/27 11:24:23;;;;;;;3.47;1.00;;;;;;;;;;5012910;28;20400;-80
2021/08/27 11:27:03;;;;;;;2.43;1.50;;;;;;;;;;5013291;28;20461;-79
2021/08/27 11:29:39;;;;;;;2.60;1.20;;;;;;;;;;5013478;28;20835;-78
2021/08/27 11:32:08;;;;;;;8.20;1.50;;;;;;;;;;4995825;28;20421;-78
2021/08/27 11:34:53;;;;;;;2.43;1.00;;;;;;;;;;5012896;28;20452;-78
2021/08/27 11:37:20;;;;;;;5.90;1.20;;;;;;;;;;5013397;28;20402;-80
2021/08/27 11:39:47;;;;;;;5.10;1.20;;;;;;;;;;5013402;28;20414;-78
2021/08/27 11:42:20;;;;;;;6.33;1.50;;;;;;;;;;5013397;28;20465;-79
2021/08/27 11:44:56;;;;;;;8.03;2.97;;;;;;;;;;5012935;28;20472;-80
2021/08/27 11:47:22;;;;;;;3.57;1.20;;;;;;;;;;5013198;28;20380;-79
2021/08/27 11:49:59;;;;;;;2.37;1.13;;;;;;;;;;5013174;28;20472;-78
2021/08/27 11:52:27;;;;;;;3.03;1.30;;;;;;;;;;5013149;28;20418;-79
2021/08/27 11:55:22;;;;;;;3.93;1.50;;;;;;;;;;5012831;28;20897;-79
2021/08/27 11:58:03;;;;;;;3.37;1.30;;;;;;;;;;5011832;28;20446;-79
2021/08/27 12:00:38;;;;;;;4.80;1.50;;;;;;;;;;5016936;28;20465;-78
2021/08/27 12:03:05;;;;;;;6.60;1.10;;;;;;;;;;4999263;28;20399;-79
2021/08/27 12:05:34;;;;;;;6.67;1.63;;;;;;;;;;5017103;28;20416;-79
2021/08/27 12:08:04;;;;;;;3.20;1.37;;;;;;;;;;5016974;28;20432;-78
2021/08/27 12:10:32;;;;;;;3.03;1.07;;;;;;;;;;5017082;28;20843;-78
2021/08/27 12:13:01;;;;;;;2.30;1.10;;;;;;;;;;5016577;28;20504;-78
2021/08/27 12:15:29;;;;;;;5.37;1.10;;;;;;;;;;5016891;28;20501;-79
2021/08/27 12:18:06;;;;;;;3.40;1.30;;;;;;;;;;4999092;28;20457;-78
2021/08/27 12:20:36;;;;;;;3.90;1.20;;;;;;;;;;5016863;28;20960;-79
2021/08/27 12:23:14;;;;;;;4.70;1.40;;;;;;;;;;5016516;28;20505;-78
2021/08/27 12:25:42;;;;;;;3.13;1.10;;;;;;;;;;4999307;28;20443;-79
2021/08/27 12:28:13;;;;;;;7.37;1.40;;;;;;;;;;5016858;28;20782;-79
2021/08/27 12:30:46;;;;;;;4.77;2.03;;;;;;;;;;5016714;28;20823;-78
2021/08/27 12:33:12;;;;;;;4.27;1.70;;;;;;;;;;5016362;28;20409;-78
2021/08/27 12:35:39;;;;;;;5.80;1.77;;;;;;;;;;5016589;28;20444;-78
2021/08/27 12:38:05;;;;;;;5.80;2.20;;;;;;;;;;5016531;28;20389;-77
2021/08/27 12:40:32;;;;;;;3.40;1.80;;;;;;;;;;5016301;28;20464;-79
2021/08/27 12:43:08;;;;;;;4.00;1.80;;;;;;;;;;5016225;28;20425;-78
2021/08/27 12:45:47;;;;;;;4.70;2.60;;;;;;;;;;5016314;28;20922;-78
2021/08/27 12:48:26;;;;;;;10.10;2.73;;;;;;;;;;5015929;28;20406;-77
2021/08/27 12:51:00;;;;;;;12.80;2.73;;;;;;;;;;5016336;28;20876;-78
2021/08/27 12:53:27;;;;;;;11.20;2.03;;;;;;;;;;4998378;28;20438;-80
2021/08/27 12:56:06;;;;;;;6.43;2.30;;;;;;;;;;4982602;28;20940;-79
2021/08/27 12:58:33;;;;;;;5.03;1.17;;;;;;;;;;5016133;28;20496;-79
2021/08/27 13:01:16;;;;;;;6.50;2.00;;;;;;;;;;5016064;28;20432;-79
2021/08/27 13:03:43;;;;;;;4.53;1.83;;;;;;;;;;5015745;28;20406;-78
2021/08/27 13:06:29;;;;;;;6.53;2.23;;;;;;;;;;4998298;28;20461;-83
2021/08/27 13:08:59;;;;;;;4.37;2.10;;;;;;;;;;5016010;28;20402;-80
2021/08/27 13:11:25;;;;;;;5.93;1.77;;;;;;;;;;5014960;28;20933;-79
2021/08/27 13:13:51;;;;;;;4.17;1.80;;;;;;;;;;4998093;28;20408;-79
2021/08/27 13:16:17;;;;;;;11.10;2.40;;;;;;;;;;5015932;28;20524;-80
2021/08/27 13:18:45;;;;;;;4.57;2.30;;;;;;;;;;5015772;28;20376;-77
2021/08/27 13:21:12;;;;;;;7.00;2.93;;;;;;;;;;5015949;28;20432;-80
2021/08/27 13:23:38;;;;;;;4.67;2.30;;;;;;;;;;5015330;28;20837;-80
2021/08/27 13:26:08;;;;;;;9.07;3.40;;;;;;;;;;5015552;28;20461;-78
2021/08/27 13:28:34;;;;;;;6.73;3.27;;;;;;;;;;4997788;28;20396;-81
2021/08/27 13:31:00;;;;;;;6.43;3.13;;;;;;;;;;5015565;28;20413;-80
2021/08/27 13:33:26;;;;;;;10.60;3.97;;;;;;;;;;5015090;28;20422;-79
2021/08/27 13:35:52;;;;;;;10.10;3.23;;;;;;;;;;5015522;28;20529;-80
2021/08/27 13:38:18;;;;;;;7.37;3.30;;;;;;;;;;4998008;28;20418;-80
2021/08/27 13:40:44;;;;;;;5.97;2.93;;;;;;;;;;5015108;28;20461;-78
2021/08/27 13:43:10;;;;;;;4.03;2.03;;;;;;;;;;5015252;28;20784;-78
2021/08/27 13:45:36;;;;;;;7.97;2.60;;;;;;;;;;5015524;28;20833;-80
2021/08/27 13:48:03;;;;;;;2.10;1.80;;;;;;;;;;5015259;28;20418;-78
2021/08/27 13:50:29;;;;;;;3.80;1.90;;;;;;;;;;5015256;28;20418;-78
2021/08/27 13:52:55;;;;;;;2.80;2.23;;;;;;;;;;5014701;28;20495;-78
2021/08/27 13:55:22;;;;;;;3.33;1.80;;;;;;;;;;5015011;28;20525;-79
2021/08/27 13:57:49;;;;;;;3.43;1.47;;;;;;;;;;5015083;28;20414;-78
2021/08/27 14:00:16;;;;;;;3.57;1.97;;;;;;;;;;5014740;28;20388;-78
2021/08/27 14:02:42;;;;;;;3.47;1.80;;;;;;;;;;5014883;28;20877;-77
2021/08/27 14:05:09;;;;;;;4.37;1.53;;;;;;;;;;5014673;28;20435;-79
2021/08/27 14:07:36;;;;;;;6.13;1.50;;;;;;;;;;5014974;28;20485;-78
2021/08/27 14:10:03;;;;;;;4.53;2.20;;;;;;;;;;5014632;28;20430;-80
2021/08/27 14:12:29;;;;;;;3.10;1.70;;;;;;;;;;5014929;28;20420;-79
2021/08/27 14:14:55;;;;;;;6.00;1.93;;;;;;;;;;5014384;28;20490;-78
2021/08/27 14:17:22;;;;;;;7.87;2.17;;;;;;;;;;5014783;28;20446;-80
2021/08/27 14:19:48;;;;;;;6.07;2.20;;;;;;;;;;4997095;28;20404;-78
2021/08/27 14:22:14;;;;;;;6.10;2.10;;;;;;;;;;5014794;28;20465;-77
2021/08/27 14:24:40;;;;;;;5.37;1.77;;;;;;;;;;5014229;28;20774;-79
2021/08/27 14:27:06;;;;;;;7.67;2.13;;;;;;;;;;5014714;28;20417;-79
2021/08/27 14:29:32;;;;;;;5.93;1.40;;;;;;;;;;5014682;28;20384;-77
2021/08/27 14:32:01;;;;;;;3.37;1.60;;;;;;;;;;5014432;28;20425;-78
2021/08/27 14:34:27;;;;;;;3.40;1.20;;;;;;;;;;4996660;28;20415;-77
2021/08/27 14:36:53;;;;;;;5.23;2.00;;;;;;;;;;5014272;28;20948;-78
2021/08/27 14:39:19;;;;;;;2.80;1.37;;;;;;;;;;5014322;28;20425;-79
2021/08/27 14:41:45;;;;;;;5.73;1.47;;;;;;;;;;5014241;28;20461;-77
2021/08/27 14:44:11;;;;;;;6.53;1.50;;;;;;;;;;5013955;28;20468;-79